Time;durP1;ratioP1;P1;durP2;ratioP2;P2;SDS_P1;SDS_P2;PMS_P1;PMS_P2;Temp;Humidity;BMP_temperature;BMP_pressure;BME280_temperature;BME280_humidity;BME280_pressure;Samples;Min_cycle;Max_cycle;Signal;HPM_P1;HPM_P2
2023/06/19 00:03:02;;;;;;;8.07;7.37;;;24.00;65.50;;;;;;4615650;60;21581;-36
2023/06/19 00:08:05;;;;;;;8.40;7.60;;;24.00;65.40;;;;;;4615395;57;21021;-36
2023/06/19 00:13:06;;;;;;;8.50;7.70;;;24.00;65.40;;;;;;4735684;56;21603;-35
2023/06/19 00:18:07;;;;;;;8.00;7.20;;;24.00;65.40;;;;;;4615504;60;21081;-32
2023/06/19 00:23:11;;;;;;;8.18;7.43;;;24.00;65.40;;;;;;4615667;60;21029;-39
2023/06/19 00:28:14;;;;;;;8.63;7.82;;;24.00;65.50;;;;;;4615732;60;21081;-35
2023/06/19 00:33:15;;;;;;;8.20;7.43;;;24.00;65.50;;;;;;4615371;60;21543;-37
2023/06/19 00:38:16;;;;;;;7.70;7.00;;;24.00;65.50;;;;;;4645718;56;21017;-36
2023/06/19 00:43:17;;;;;;;8.57;7.78;;;24.00;65.40;;;;;;4757623;56;21090;-36
2023/06/19 00:48:18;;;;;;;7.40;6.70;;;24.00;65.50;;;;;;4615388;60;21555;-34
2023/06/19 00:53:19;;;;;;;7.50;6.80;;;24.00;65.50;;;;;;4765114;56;21121;-36
2023/06/19 00:58:21;;;;;;;7.95;7.15;;;24.00;65.50;;;;;;4758697;56;21097;-36
2023/06/19 01:03:22;;;;;;;7.62;6.93;;;24.00;65.40;;;;;;4665385;56;21029;-37
2023/06/19 01:08:47;;;;;;;7.85;7.15;;;23.90;65.40;;;;;;4654196;56;21009;-34
2023/06/19 01:15:11;;;;;;;7.53;6.82;;;23.90;65.40;;;;;;4634452;56;21069;-36
2023/06/19 01:20:14;;;;;;;8.25;7.47;;;23.90;65.40;;;;;;4682344;56;21060;-39
2023/06/19 01:25:15;;;;;;;7.78;7.07;;;23.90;65.40;;;;;;4615862;60;21105;-37
2023/06/19 01:30:16;;;;;;;7.90;7.15;;;23.90;65.40;;;;;;4759614;56;21540;-37
2023/06/19 01:35:21;;;;;;;7.97;7.28;;;23.90;65.40;;;;;;4615084;60;21496;-34
2023/06/19 01:40:27;;;;;;;8.18;7.37;;;23.90;65.50;;;;;;4626326;56;21081;-37
2023/06/19 01:45:32;;;;;;;7.62;6.85;;;23.90;65.40;;;;;;4658065;56;21097;-36
2023/06/19 01:50:32;;;;;;;7.47;6.78;;;23.90;65.30;;;;;;4615636;57;21531;-37
2023/06/19 01:55:33;;;;;;;7.68;6.97;;;23.90;65.30;;;;;;4716201;56;21101;-36
2023/06/19 02:00:37;;;;;;;7.72;7.00;;;23.90;65.30;;;;;;4693017;56;21495;-37
2023/06/19 02:05:39;;;;;;;7.80;7.10;;;23.90;65.30;;;;;;4677994;56;21527;-34
2023/06/19 02:10:40;;;;;;;7.40;6.80;;;23.90;65.40;;;;;;4716713;56;21547;-36
2023/06/19 02:15:41;;;;;;;7.03;6.43;;;23.90;65.40;;;;;;4680094;56;21053;-37
2023/06/19 02:20:42;;;;;;;7.80;7.10;;;23.90;65.40;;;;;;4615672;60;21064;-37
2023/06/19 02:25:43;;;;;;;7.68;6.97;;;23.90;65.40;;;;;;4635838;56;21029;-35
2023/06/19 02:30:44;;;;;;;7.57;6.87;;;23.90;65.80;;;;;;4640295;56;21025;-37
2023/06/19 02:35:45;;;;;;;7.93;7.20;;;23.90;65.30;;;;;;4628173;56;21025;-38
2023/06/19 02:40:45;;;;;;;7.03;6.43;;;23.90;65.40;;;;;;4639756;56;21108;-37
2023/06/19 02:45:46;;;;;;;7.43;6.72;;;23.90;65.40;;;;;;4899446;56;21079;-37
2023/06/19 02:50:47;;;;;;;7.05;6.45;;;23.90;65.40;;;;;;4689755;56;21013;-39
2023/06/19 02:55:48;;;;;;;7.20;6.60;;;23.90;65.30;;;;;;4648631;56;21085;-37
2023/06/19 03:00:49;;;;;;;7.30;6.60;;;23.90;65.30;;;;;;4635129;56;21085;-37
2023/06/19 03:05:50;;;;;;;7.57;6.78;;;23.90;65.30;;;;;;4642048;56;21132;-36
2023/06/19 03:10:51;;;;;;;7.68;6.97;;;23.90;65.30;;;;;;4642292;56;21077;-36
2023/06/19 03:15:52;;;;;;;7.57;6.87;;;23.90;65.30;;;;;;4627083;56;21666;-36
2023/06/19 03:20:52;;;;;;;7.07;6.47;;;23.90;65.30;;;;;;4615889;56;21045;-37
2023/06/19 03:25:53;;;;;;;7.10;6.50;;;23.90;65.50;;;;;;4699573;56;21092;-37
2023/06/19 03:30:55;;;;;;;6.87;6.28;;;23.90;65.40;;;;;;4615166;60;21029;-38
2023/06/19 03:35:55;;;;;;;7.43;6.72;;;23.90;65.30;;;;;;4625127;56;21029;-36
2023/06/19 03:40:56;;;;;;;7.35;6.65;;;23.90;65.40;;;;;;4667742;56;21526;-36
2023/06/19 03:45:57;;;;;;;6.85;6.25;;;23.90;65.30;;;;;;4615313;56;21029;-38
2023/06/19 03:50:59;;;;;;;7.28;6.68;;;23.90;65.00;;;;;;4655894;56;21033;-39
2023/06/19 03:56:00;;;;;;;7.28;6.57;;;23.90;65.20;;;;;;4659248;56;21565;-37
2023/06/19 04:01:01;;;;;;;6.90;6.30;;;23.80;65.10;;;;;;4753399;56;21196;-39
2023/06/19 04:06:01;;;;;;;7.25;6.07;;;23.90;65.10;;;;;;4615661;60;21085;-36
2023/06/19 04:11:02;;;;;;;7.03;6.40;;;23.80;65.00;;;;;;4647867;56;21061;-35
2023/06/19 04:16:03;;;;;;;7.03;6.32;;;23.80;64.90;;;;;;4758610;56;21053;-38
2023/06/19 04:21:04;;;;;;;6.65;6.03;;;23.80;64.80;;;;;;4644267;56;21545;-37
2023/06/19 04:26:05;;;;;;;6.60;6.00;;;23.80;64.80;;;;;;4624010;56;21140;-38
2023/06/19 04:31:06;;;;;;;7.22;6.53;;;23.80;64.80;;;;;;4717598;56;21544;-37
2023/06/19 04:36:09;;;;;;;7.35;6.65;;;23.80;64.70;;;;;;4673945;56;21041;-36
2023/06/19 04:41:10;;;;;;;7.18;6.47;;;23.80;64.70;;;;;;4614907;60;21523;-38
2023/06/19 04:46:11;;;;;;;6.82;6.15;;;23.80;64.70;;;;;;4615475;60;21025;-36
2023/06/19 04:51:12;;;;;;;7.10;6.43;;;23.80;64.50;;;;;;4778723;56;21017;-35
2023/06/19 04:56:14;;;;;;;7.78;6.78;;;23.80;64.60;;;;;;4614888;56;21160;-37
2023/06/19 05:01:16;;;;;;;9.50;6.60;;;23.80;64.50;;;;;;4615721;60;21026;-40
2023/06/19 05:06:17;;;;;;;6.95;6.32;;;23.80;64.40;;;;;;4627944;56;21081;-39
2023/06/19 05:11:18;;;;;;;7.78;6.97;;;23.80;64.40;;;;;;4730086;56;21029;-37
2023/06/19 05:16:19;;;;;;;7.72;6.95;;;23.80;64.40;;;;;;4632459;56;21101;-36
2023/06/19 05:21:20;;;;;;;7.85;7.15;;;23.80;64.30;;;;;;4626144;56;21121;-36
2023/06/19 05:26:22;;;;;;;8.25;7.45;;;23.80;64.30;;;;;;4782810;56;21052;-35
2023/06/19 05:31:23;;;;;;;8.43;7.62;;;23.80;64.30;;;;;;4618924;56;21013;-39
2023/06/19 05:36:24;;;;;;;7.82;7.03;;;23.80;64.30;;;;;;4678936;56;21542;-39
2023/06/19 05:41:24;;;;;;;8.00;7.20;;;23.80;64.30;;;;;;4616939;56;21058;-35
2023/06/19 05:46:25;;;;;;;8.10;7.32;;;23.80;64.20;;;;;;4725981;56;21527;-40
2023/06/19 05:51:26;;;;;;;8.13;7.32;;;23.80;64.20;;;;;;4641148;56;21025;-36
2023/06/19 05:56:27;;;;;;;8.05;7.30;;;23.80;64.20;;;;;;4616801;56;21073;-35
2023/06/19 06:01:28;;;;;;;8.73;7.70;;;23.80;64.20;;;;;;4745762;56;21494;-38
2023/06/19 06:06:29;;;;;;;8.80;7.90;;;23.80;64.20;;;;;;4637641;56;21160;-37
2023/06/19 06:11:30;;;;;;;8.65;7.47;;;23.80;64.90;;;;;;4651038;56;21595;-36
2023/06/19 06:16:31;;;;;;;9.70;8.50;;;23.80;64.10;;;;;;4639815;56;21072;-36
2023/06/19 06:21:32;;;;;;;8.38;7.55;;;23.80;64.20;;;;;;4632316;56;21085;-38
2023/06/19 06:26:33;;;;;;;8.93;8.02;;;23.80;64.20;;;;;;4718550;56;21073;-36
2023/06/19 06:31:35;;;;;;;8.63;7.78;;;23.80;64.10;;;;;;4680146;56;21471;-38
2023/06/19 06:36:35;;;;;;;8.48;7.68;;;23.80;64.20;;;;;;4612869;56;21097;-35
2023/06/19 06:41:37;;;;;;;8.40;7.55;;;23.80;64.20;;;;;;4616049;56;21109;-39
2023/06/19 06:46:37;;;;;;;9.60;7.57;;;23.80;64.50;;;;;;4614593;60;21506;-36
2023/06/19 06:51:38;;;;;;;8.68;7.80;;;23.90;64.40;;;;;;4650475;56;21061;-38
2023/06/19 06:56:39;;;;;;;9.98;7.60;;;23.90;64.20;;;;;;4615117;56;21564;-37
2023/06/19 07:01:41;;;;;;;10.43;8.45;;;23.90;64.20;;;;;;4621309;56;21037;-36
2023/06/19 07:06:41;;;;;;;8.93;8.02;;;23.90;64.20;;;;;;4613697;56;21042;-37
2023/06/19 07:11:42;;;;;;;9.50;8.32;;;24.00;64.20;;;;;;4614292;60;21571;-37
2023/06/19 07:16:45;;;;;;;10.75;8.75;;;24.00;64.20;;;;;;4642230;56;21041;-39
2023/06/19 07:21:45;;;;;;;10.07;8.68;;;24.00;64.20;;;;;;4615498;60;21505;-38
2023/06/19 07:26:47;;;;;;;11.20;9.23;;;24.00;64.10;;;;;;4615459;60;21085;-34
2023/06/19 07:31:48;;;;;;;9.95;8.80;;;24.00;64.10;;;;;;4615471;60;21052;-38
2023/06/19 07:36:49;;;;;;;9.45;8.50;;;24.00;64.00;;;;;;4664518;56;21615;-38
2023/06/19 07:41:50;;;;;;;12.43;8.57;;;24.00;64.00;;;;;;4673057;56;21045;-45
2023/06/19 07:46:51;;;;;;;10.13;9.10;;;24.00;64.00;;;;;;4687424;56;21146;-36
2023/06/19 07:51:51;;;;;;;10.50;9.00;;;24.00;64.70;;;;;;4615522;60;21025;-38
2023/06/19 07:56:52;;;;;;;11.02;8.98;;;24.00;64.00;;;;;;4614659;60;21033;-38
2023/06/19 08:01:53;;;;;;;11.35;9.20;;;24.00;64.00;;;;;;4623634;56;21092;-38
2023/06/19 08:06:54;;;;;;;9.60;8.60;;;24.00;63.90;;;;;;4620873;56;21100;-38
2023/06/19 08:11:55;;;;;;;11.50;8.95;;;24.10;64.00;;;;;;4658329;56;21037;-36
2023/06/19 08:16:56;;;;;;;11.32;9.25;;;24.10;64.00;;;;;;4665827;56;21527;-37
2023/06/19 08:21:57;;;;;;;10.27;8.55;;;24.10;64.00;;;;;;4615769;57;21088;-41
2023/06/19 08:26:58;;;;;;;11.60;9.52;;;24.10;64.00;;;;;;4627624;56;21050;-35
2023/06/19 08:32:01;;;;;;;10.80;9.45;;;24.10;64.00;;;;;;4641930;56;21475;-38
2023/06/19 08:37:02;;;;;;;10.02;8.93;;;24.10;63.90;;;;;;4614709;60;21057;-41
2023/06/19 08:42:04;;;;;;;11.27;9.30;;;24.10;64.00;;;;;;4636661;56;21108;-40
2023/06/19 08:47:06;;;;;;;10.48;9.38;;;24.10;63.90;;;;;;4700159;56;21025;-35
2023/06/19 08:52:08;;;;;;;10.65;9.30;;;24.10;63.90;;;;;;4628523;56;21140;-37
2023/06/19 08:57:10;;;;;;;11.50;9.23;;;24.10;63.90;;;;;;4614379;60;21088;-39
2023/06/19 09:02:11;;;;;;;10.32;9.20;;;24.10;64.00;;;;;;4615338;60;21080;-37
2023/06/19 09:07:14;;;;;;;11.80;10.02;;;24.10;63.90;;;;;;4651558;56;21092;-38
2023/06/19 09:12:15;;;;;;;10.27;9.18;;;24.10;64.00;;;;;;4655548;55;21426;-38
2023/06/19 09:17:21;;;;;;;10.13;9.02;;;24.10;64.00;;;;;;4650290;56;21622;-40
2023/06/19 09:22:22;;;;;;;11.63;9.35;;;24.10;64.00;;;;;;4647264;56;21484;-37
2023/06/19 09:27:24;;;;;;;10.30;9.30;;;24.20;66.40;;;;;;4644796;56;21041;-29
2023/06/19 09:32:26;;;;;;;10.23;9.07;;;24.20;64.50;;;;;;4651632;56;21674;-35
2023/06/19 09:37:29;;;;;;;10.57;9.32;;;24.30;64.60;;;;;;4624214;56;21487;-35
2023/06/19 09:42:34;;;;;;;11.80;10.25;;;24.30;64.40;;;;;;4679973;56;21543;-36
2023/06/19 09:47:43;;;;;;;12.25;10.32;;;24.40;64.90;;;;;;4625805;56;21602;-35
2023/06/19 09:52:44;;;;;;;11.63;9.90;;;24.40;64.50;;;;;;4622458;56;21097;-38
2023/06/19 09:57:46;;;;;;;12.65;11.05;;;24.50;64.80;;;;;;4620195;56;21585;-35
2023/06/19 10:02:48;;;;;;;11.18;10.05;;;24.60;64.50;;;;;;4615112;56;21155;-40
2023/06/19 10:07:49;;;;;;;12.40;10.00;;;24.50;64.60;;;;;;4650737;56;21120;-37
2023/06/19 10:12:50;;;;;;;11.45;10.18;;;24.40;65.00;;;;;;4640075;55;22336;-39
2023/06/19 10:18:02;;;;;;;11.77;9.98;;;24.40;65.10;;;;;;4612568;59;21029;-38
2023/06/19 10:23:16;;;;;;;11.30;9.75;;;24.40;65.10;;;;;;4632550;56;21543;-36
2023/06/19 10:28:28;;;;;;;10.88;9.73;;;24.40;65.20;;;;;;4613252;60;21587;-41
2023/06/19 10:33:34;;;;;;;12.40;9.65;;;24.40;65.20;;;;;;4626921;56;21554;-39
2023/06/19 10:38:35;;;;;;;12.10;9.98;;;24.40;65.20;;;;;;4612989;60;21069;-38
2023/06/19 10:43:35;;;;;;;15.57;13.68;;;24.40;65.50;;;;;;4656888;56;21502;-36
2023/06/19 10:48:36;;;;;;;20.95;14.63;;;24.40;64.00;;;;;;4625482;55;21128;-36
2023/06/19 10:53:37;;;;;;;18.95;14.38;;;24.40;65.50;;;;;;4624710;55;21625;-38
2023/06/19 10:58:38;;;;;;;15.48;13.62;;;24.30;65.20;;;;;;4682884;55;21463;-40
2023/06/19 11:03:39;;;;;;;18.42;13.73;;;24.30;65.70;;;;;;4621552;55;21402;-37
2023/06/19 11:08:40;;;;;;;18.33;13.93;;;24.20;66.30;;;;;;4635216;55;21583;-37
2023/06/19 11:13:43;;;;;;;17.20;13.40;;;24.20;66.70;;;;;;4675833;55;21029;-39
2023/06/19 11:18:44;;;;;;;14.27;12.77;;;24.20;66.90;;;;;;4655249;55;21025;-37
2023/06/19 11:23:48;;;;;;;15.55;13.60;;;24.20;67.00;;;;;;4660318;55;21089;-40
2023/06/19 11:28:49;;;;;;;15.60;13.62;;;24.20;67.00;;;;;;4653100;56;21479;-38
2023/06/19 11:34:02;;;;;;;15.30;13.13;;;24.20;67.20;;;;;;4711334;56;21410;-36
2023/06/19 11:39:04;;;;;;;15.50;13.23;;;24.20;67.20;;;;;;4634477;56;21611;-36
2023/06/19 11:44:07;;;;;;;16.98;14.02;;;24.20;67.30;;;;;;4694921;55;22115;-33
2023/06/19 11:49:09;;;;;;;15.60;13.88;;;24.20;67.20;;;;;;4635300;56;21037;-33
2023/06/19 11:54:11;;;;;;;14.73;13.07;;;24.20;67.20;;;;;;4655007;56;21033;-36
2023/06/19 11:59:13;;;;;;;15.10;13.48;;;24.20;67.30;;;;;;4675301;56;21013;-36
2023/06/19 12:04:14;;;;;;;15.93;13.85;;;24.20;67.40;;;;;;4705190;56;21483;-35
2023/06/19 12:09:15;;;;;;;15.80;12.93;;;24.20;67.30;;;;;;4658097;55;21495;-43
2023/06/19 12:14:18;;;;;;;16.50;14.20;;;24.20;67.40;;;;;;4670403;55;21060;-36
2023/06/19 12:19:19;;;;;;;15.05;13.45;;;24.20;67.50;;;;;;4623198;55;21491;-40
2023/06/19 12:24:20;;;;;;;15.90;13.73;;;24.10;67.40;;;;;;4723916;55;21021;-40
2023/06/19 12:29:20;;;;;;;15.75;14.02;;;24.20;67.40;;;;;;4657651;55;21021;-36
2023/06/19 12:34:21;;;;;;;16.92;14.05;;;24.20;67.40;;;;;;4615645;56;21477;-38
2023/06/19 12:39:23;;;;;;;16.92;14.23;;;24.20;67.40;;;;;;4692333;55;21550;-35
2023/06/19 12:44:24;;;;;;;16.40;14.43;;;24.30;66.60;;;;;;4627269;55;21062;-36
2023/06/19 12:49:25;;;;;;;16.50;14.80;;;24.30;66.50;;;;;;4612922;59;21077;-32
2023/06/19 12:54:27;;;;;;;16.80;14.65;;;24.30;66.80;;;;;;4613755;59;21085;-36
2023/06/19 12:59:29;;;;;;;17.60;14.32;;;24.40;66.80;;;;;;4651783;55;21495;-37
2023/06/19 13:04:30;;;;;;;15.88;14.18;;;24.40;66.90;;;;;;4614093;59;21570;-32
2023/06/19 13:09:30;;;;;;;16.20;14.50;;;24.40;66.90;;;;;;4643909;55;21045;-37
2023/06/19 13:14:31;;;;;;;16.98;15.18;;;24.40;67.10;;;;;;4618813;55;21029;-36
2023/06/19 13:19:32;;;;;;;18.35;15.77;;;24.40;67.10;;;;;;4620500;55;21511;-33
2023/06/19 13:24:33;;;;;;;16.87;14.73;;;24.40;67.10;;;;;;4613383;60;21085;-34
2023/06/19 13:29:34;;;;;;;17.80;14.73;;;24.50;67.20;;;;;;4640162;55;22317;-31
2023/06/19 13:34:35;;;;;;;18.42;15.13;;;24.50;67.20;;;;;;4612866;56;21041;-34
2023/06/19 13:39:36;;;;;;;18.67;15.00;;;24.50;67.30;;;;;;4612958;60;21578;-33
2023/06/19 13:44:38;;;;;;;16.75;14.95;;;24.50;67.20;;;;;;4614619;55;21005;-35
2023/06/19 13:49:39;;;;;;;17.62;15.65;;;24.50;67.40;;;;;;4624825;56;21061;-29
2023/06/19 13:54:40;;;;;;;17.15;15.13;;;24.50;68.00;;;;;;4619269;55;21108;-36
2023/06/19 13:59:42;;;;;;;17.15;15.35;;;24.60;67.40;;;;;;4614614;60;21100;-38
2023/06/19 14:04:43;;;;;;;17.85;15.77;;;24.60;67.30;;;;;;4637798;55;21523;-39
2023/06/19 14:09:44;;;;;;;16.92;15.13;;;24.50;67.30;;;;;;4615147;59;21056;-38
2023/06/19 14:14:45;;;;;;;17.35;15.55;;;24.40;67.20;;;;;;4618490;55;21623;-37
2023/06/19 14:19:46;;;;;;;17.70;15.80;;;24.40;67.20;;;;;;4621172;55;21080;-39
2023/06/19 14:24:47;;;;;;;16.95;15.15;;;24.40;67.20;;;;;;4615500;60;21120;-38
2023/06/19 14:29:48;;;;;;;18.62;16.73;;;24.40;67.10;;;;;;4615439;60;21088;-37
2023/06/19 14:34:49;;;;;;;19.67;16.73;;;24.40;67.00;;;;;;4614961;59;21042;-36
2023/06/19 14:39:50;;;;;;;18.77;16.62;;;24.40;67.00;;;;;;4616402;56;21367;-39
2023/06/19 14:44:51;;;;;;;19.25;16.40;;;24.40;66.90;;;;;;4655808;55;21114;-36
2023/06/19 14:49:52;;;;;;;18.77;16.77;;;24.40;66.80;;;;;;4629046;55;21033;-36
2023/06/19 14:54:52;;;;;;;18.45;16.45;;;24.40;66.80;;;;;;4633448;55;21026;-39
2023/06/19 14:59:53;;;;;;;18.48;16.48;;;24.40;66.70;;;;;;4615755;59;21104;-35
2023/06/19 15:04:54;;;;;;;19.95;17.45;;;24.40;66.60;;;;;;4615295;59;21092;-39
2023/06/19 15:09:55;;;;;;;19.15;17.15;;;24.40;66.70;;;;;;4615918;55;21013;-38
2023/06/19 15:14:56;;;;;;;19.08;17.08;;;24.40;66.60;;;;;;4616002;55;21048;-38
2023/06/19 15:19:57;;;;;;;18.33;16.20;;;24.40;66.50;;;;;;4615725;60;21017;-39
2023/06/19 15:24:58;;;;;;;20.67;16.35;;;24.40;66.40;;;;;;4613781;55;21013;-39
2023/06/19 15:29:58;;;;;;;20.37;17.95;;;24.40;66.40;;;;;;4640762;55;21084;-36
2023/06/19 15:34:59;;;;;;;19.70;17.60;;;24.40;66.30;;;;;;4637670;56;21594;-36
2023/06/19 15:40:01;;;;;;;20.95;18.23;;;24.40;66.30;;;;;;4633737;55;21069;-37
2023/06/19 15:45:02;;;;;;;20.60;17.77;;;24.40;66.30;;;;;;4615349;56;21028;-33
2023/06/19 15:50:04;;;;;;;20.15;18.05;;;24.40;66.20;;;;;;4648460;56;21092;-40
2023/06/19 15:55:06;;;;;;;20.37;18.27;;;24.40;66.20;;;;;;4670331;56;21143;-36
2023/06/19 16:00:08;;;;;;;20.30;18.10;;;24.40;66.20;;;;;;4615050;60;21037;-39
2023/06/19 16:05:09;;;;;;;20.27;18.23;;;24.40;66.10;;;;;;4632032;56;21503;-38
2023/06/19 16:10:10;;;;;;;21.27;18.75;;;24.40;66.10;;;;;;4641915;55;21119;-38
2023/06/19 16:15:16;;;;;;;20.77;18.58;;;24.40;66.10;;;;;;4618554;55;21507;-40
2023/06/19 16:20:17;;;;;;;21.80;19.50;;;24.40;66.10;;;;;;4615676;56;21073;-41
2023/06/19 16:25:18;;;;;;;21.73;19.37;;;24.40;66.10;;;;;;4615203;59;21076;-38
2023/06/19 16:30:19;;;;;;;20.88;18.52;;;24.40;66.10;;;;;;4674447;55;21574;-40
2023/06/19 16:35:22;;;;;;;19.95;17.87;;;24.30;65.90;;;;;;4666680;56;21106;-36
2023/06/19 16:40:24;;;;;;;21.80;18.80;;;24.40;66.00;;;;;;4657049;55;21552;-35
2023/06/19 16:45:26;;;;;;;19.45;17.55;;;24.40;66.00;;;;;;4638437;56;21973;-36
2023/06/19 16:50:27;;;;;;;21.10;18.87;;;24.40;65.90;;;;;;4667663;56;21088;-38
2023/06/19 16:55:28;;;;;;;20.75;18.52;;;24.40;65.90;;;;;;4622749;56;21112;-39
2023/06/19 17:00:29;;;;;;;21.10;18.90;;;24.40;65.90;;;;;;4668412;56;21033;-40
2023/06/19 17:05:30;;;;;;;21.83;19.08;;;24.40;65.80;;;;;;4615368;60;21037;-39
2023/06/19 17:10:31;;;;;;;21.77;19.25;;;24.40;65.80;;;;;;4682268;55;21025;-34
2023/06/19 17:15:32;;;;;;;22.48;20.17;;;24.40;65.80;;;;;;4620933;55;21125;-35
2023/06/19 17:20:33;;;;;;;22.73;20.20;;;24.40;65.80;;;;;;4615543;55;21526;-36
2023/06/19 17:25:34;;;;;;;22.90;20.50;;;24.40;65.80;;;;;;4615585;59;21965;-37
2023/06/19 17:30:37;;;;;;;22.42;20.08;;;24.40;65.80;;;;;;4717369;55;21358;-35
2023/06/19 17:35:38;;;;;;;22.27;19.87;;;24.40;65.80;;;;;;4615168;60;21492;-37
2023/06/19 17:40:42;;;;;;;20.62;18.48;;;24.40;65.80;;;;;;4614460;59;21061;-36
2023/06/19 17:45:43;;;;;;;21.98;19.67;;;24.40;65.80;;;;;;4638363;55;21176;-36
2023/06/19 17:50:43;;;;;;;21.37;19.08;;;24.40;65.80;;;;;;4615209;59;21501;-35
2023/06/19 17:55:44;;;;;;;21.05;18.85;;;24.40;65.80;;;;;;4614669;59;21078;-37
2023/06/19 18:00:45;;;;;;;21.70;18.42;;;24.40;65.80;;;;;;4679677;55;21838;-38
2023/06/19 18:05:46;;;;;;;21.40;19.08;;;24.40;65.80;;;;;;4635552;55;21053;-37
2023/06/19 18:10:47;;;;;;;22.37;20.08;;;24.40;65.80;;;;;;4690561;55;21029;-36
2023/06/19 18:15:48;;;;;;;22.65;20.25;;;24.40;65.80;;;;;;4730856;56;21473;-38
2023/06/19 18:20:49;;;;;;;21.62;19.33;;;24.40;65.80;;;;;;4615506;55;21123;-37
2023/06/19 18:25:51;;;;;;;21.87;19.58;;;24.40;65.90;;;;;;4615059;59;21013;-37
2023/06/19 18:30:52;;;;;;;21.25;18.95;;;24.40;65.90;;;;;;4652375;55;21540;-34
2023/06/19 18:35:52;;;;;;;21.27;19.17;;;24.40;65.90;;;;;;4654149;55;21113;-33
2023/06/19 18:40:54;;;;;;;22.62;20.23;;;24.40;65.90;;;;;;4622810;55;21073;-34
2023/06/19 18:45:55;;;;;;;22.33;19.30;;;24.40;66.10;;;;;;4694265;56;21156;-37
2023/06/19 18:50:56;;;;;;;22.33;19.98;;;24.40;66.60;;;;;;4633384;55;21591;-36
2023/06/19 18:55:57;;;;;;;22.02;19.62;;;24.40;66.00;;;;;;4614971;55;21034;-36
2023/06/19 19:00:58;;;;;;;21.00;18.80;;;24.40;66.10;;;;;;4698245;55;21511;-34
2023/06/19 19:05:59;;;;;;;21.12;18.87;;;24.40;66.10;;;;;;4699430;55;21046;-39
2023/06/19 19:11:00;;;;;;;23.42;20.23;;;24.40;66.10;;;;;;4623166;55;21001;-38
2023/06/19 19:16:01;;;;;;;21.87;19.58;;;24.40;66.10;;;;;;4632506;55;21136;-38
2023/06/19 19:21:02;;;;;;;21.80;19.50;;;24.40;66.20;;;;;;4617845;55;21689;-36
2023/06/19 19:26:03;;;;;;;21.27;18.98;;;24.40;66.20;;;;;;4653906;55;21541;-45
2023/06/19 19:31:04;;;;;;;22.40;20.00;;;24.40;66.20;;;;;;4690498;55;21351;-37
2023/06/19 19:36:06;;;;;;;21.48;19.27;;;24.40;66.30;;;;;;4632311;56;21073;-36
2023/06/19 19:41:07;;;;;;;22.83;19.12;;;24.40;66.30;;;;;;4616671;56;21542;-37
2023/06/19 19:46:08;;;;;;;21.52;19.23;;;24.40;66.30;;;;;;4698561;55;21148;-38
2023/06/19 19:51:11;;;;;;;21.17;18.60;;;24.40;66.40;;;;;;4626618;55;21041;-34
2023/06/19 19:56:12;;;;;;;20.92;18.80;;;24.40;66.40;;;;;;4615149;59;21503;-37
2023/06/19 20:01:12;;;;;;;21.40;19.17;;;24.40;66.40;;;;;;4658527;55;21074;-37
2023/06/19 20:06:13;;;;;;;22.25;19.95;;;24.40;66.40;;;;;;4635981;55;21017;-37
2023/06/19 20:11:14;;;;;;;21.83;19.52;;;24.40;66.40;;;;;;4625929;55;21073;-37
2023/06/19 20:16:15;;;;;;;21.10;19.00;;;24.40;66.40;;;;;;4709532;55;21022;-36
2023/06/19 20:21:16;;;;;;;20.77;18.67;;;24.40;66.50;;;;;;4625995;55;21017;-38
2023/06/19 20:26:17;;;;;;;21.65;19.48;;;24.40;66.50;;;;;;4676963;55;21081;-36
2023/06/19 20:31:18;;;;;;;21.80;19.50;;;24.40;66.50;;;;;;4777565;55;21029;-39
2023/06/19 20:36:21;;;;;;;21.50;19.17;;;24.40;66.60;;;;;;4614833;59;21029;-36
2023/06/19 20:41:23;;;;;;;20.98;18.83;;;24.40;66.60;;;;;;4621385;55;21535;-35
2023/06/19 20:46:24;;;;;;;20.85;18.73;;;24.40;66.50;;;;;;4712715;55;21559;-38
2023/06/19 20:51:25;;;;;;;21.52;19.33;;;24.40;66.60;;;;;;4644416;55;21029;-35
2023/06/19 20:56:26;;;;;;;20.20;18.20;;;24.40;66.60;;;;;;4614932;59;21528;-36
2023/06/19 21:01:27;;;;;;;20.65;18.55;;;24.40;66.60;;;;;;4615383;59;21531;-36
2023/06/19 21:06:29;;;;;;;21.35;19.05;;;24.40;66.60;;;;;;4672413;55;21140;-37
2023/06/19 21:11:30;;;;;;;20.67;18.48;;;24.40;66.60;;;;;;4677007;55;21542;-34
2023/06/19 21:16:31;;;;;;;20.33;18.27;;;24.40;66.70;;;;;;4614904;56;21089;-35
2023/06/19 21:21:32;;;;;;;20.15;18.05;;;24.40;66.70;;;;;;4668623;55;21077;-36
2023/06/19 21:26:32;;;;;;;19.98;17.92;;;24.40;66.60;;;;;;4615782;59;21515;-37
2023/06/19 21:31:33;;;;;;;20.20;17.95;;;24.40;66.70;;;;;;4692812;55;21065;-38
2023/06/19 21:36:34;;;;;;;19.83;17.83;;;24.40;66.70;;;;;;4619901;56;21165;-38
2023/06/19 21:41:37;;;;;;;20.25;18.15;;;24.40;66.70;;;;;;4685850;55;21141;-38
2023/06/19 21:46:38;;;;;;;19.80;17.73;;;24.40;66.70;;;;;;4653094;56;21069;-35
2023/06/19 21:51:41;;;;;;;20.05;17.95;;;24.40;66.70;;;;;;4740868;55;21503;-36
2023/06/19 21:56:41;;;;;;;19.52;17.52;;;24.40;66.70;;;;;;4653240;55;21539;-36
2023/06/19 22:01:42;;;;;;;18.75;16.87;;;24.40;66.70;;;;;;4772633;55;21021;-37
2023/06/19 22:06:43;;;;;;;19.73;17.73;;;24.40;66.70;;;;;;4616580;59;21459;-36
2023/06/19 22:11:44;;;;;;;19.90;17.90;;;24.40;66.70;;;;;;4671526;55;21001;-36
2023/06/19 22:16:45;;;;;;;19.40;17.40;;;24.40;66.70;;;;;;4617653;55;21097;-37
2023/06/19 22:21:45;;;;;;;18.87;16.98;;;24.40;66.80;;;;;;4616238;59;21017;-34
2023/06/19 22:26:46;;;;;;;17.62;15.82;;;24.40;66.70;;;;;;4682891;56;21036;-40
2023/06/19 22:31:47;;;;;;;18.85;16.95;;;24.40;66.80;;;;;;4616719;59;21091;-39
2023/06/19 22:36:48;;;;;;;18.83;16.83;;;24.40;67.40;;;;;;4620635;55;21100;-36
2023/06/19 22:41:49;;;;;;;18.55;16.55;;;24.40;66.80;;;;;;4624323;55;21518;-36
2023/06/19 22:46:50;;;;;;;18.02;16.12;;;24.40;66.80;;;;;;4646583;56;21029;-37
2023/06/19 22:51:50;;;;;;;18.35;16.50;;;24.40;66.70;;;;;;4683513;55;21018;-34
2023/06/19 22:56:52;;;;;;;17.52;15.73;;;24.40;66.80;;;;;;4720834;55;21539;-34
2023/06/19 23:01:53;;;;;;;18.23;16.42;;;24.40;66.70;;;;;;4668484;55;21491;-37
2023/06/19 23:06:54;;;;;;;18.20;16.40;;;24.40;66.80;;;;;;4620597;55;21029;-36
2023/06/19 23:11:55;;;;;;;17.87;16.17;;;24.40;66.80;;;;;;4616894;55;21033;-39
2023/06/19 23:16:56;;;;;;;17.95;16.17;;;24.40;66.80;;;;;;4728677;55;21041;-38
2023/06/19 23:21:57;;;;;;;17.77;15.88;;;24.40;66.80;;;;;;4685048;55;21643;-36
2023/06/19 23:26:58;;;;;;;17.33;15.35;;;24.40;66.80;;;;;;4852518;55;21124;-37
2023/06/19 23:31:59;;;;;;;17.80;16.10;;;24.40;66.70;;;;;;4615822;59;21511;-35
2023/06/19 23:37:00;;;;;;;17.87;16.08;;;24.40;66.80;;;;;;4643994;55;21725;-36
2023/06/19 23:42:02;;;;;;;17.23;15.43;;;24.40;66.80;;;;;;4667598;56;21061;-36
2023/06/19 23:47:03;;;;;;;17.05;15.35;;;24.40;66.70;;;;;;4672920;55;21488;-39
2023/06/19 23:52:07;;;;;;;16.58;14.87;;;24.40;66.80;;;;;;4615658;59;21511;-37
2023/06/19 23:57:11;;;;;;;17.85;16.02;;;24.40;66.80;;;;;;4615541;55;21025;-36
